Time;durP1;ratioP1;P1;durP2;ratioP2;P2;SDS_P1;SDS_P2;PMS_P1;PMS_P2;Temp;Humidity;BMP_temperature;BMP_pressure;BME280_temperature;BME280_humidity;BME280_pressure;Samples;Min_cycle;Max_cycle;Signal;HPM_P1;HPM_P2
2022/05/31 00:00:13;;;;;;;;;;;;;;;;;;4915420;29;19923;-64
2022/05/31 00:02:39;;;;;;;;;;;;;;;;;;4915496;29;20032;-65
2022/05/31 00:05:06;;;;;;;;;;;;;;;;;;4915566;29;19919;-65
2022/05/31 00:07:31;;;;;;;;;;;;;;;;;;4915629;29;19919;-64
2022/05/31 00:09:57;;;;;;;;;;;;;;;;;;4915391;29;19925;-65
2022/05/31 00:12:23;;;;;;;;;;;;;;;;;;4927697;29;19918;-64
2022/05/31 00:16:22;;;;;;;;;;;;;;;;;;5085966;27;75029;-66
2022/05/31 00:21:44;;;;;;;10.35;2.47;;;;;;;;;;5105694;27;20388;-66
2022/05/31 00:24:14;;;;;;;5.13;2.75;;;;;;;;;;5086962;28;20063;-64
2022/05/31 00:26:40;;;;;;;10.25;3.13;;;;;;;;;;5088921;28;20123;-65
2022/05/31 00:29:08;;;;;;;8.10;3.13;;;;;;;;;;5088649;28;20021;-65
2022/05/31 00:31:36;;;;;;;5.63;3.08;;;;;;;;;;5087130;28;20040;-65
2022/05/31 00:34:02;;;;;;;7.32;2.83;;;;;;;;;;5088604;28;20021;-65
2022/05/31 00:36:29;;;;;;;9.75;2.97;;;;;;;;;;5082237;28;20032;-65
2022/05/31 00:38:55;;;;;;;15.60;3.35;;;;;;;;;;5073347;28;20029;-65
2022/05/31 00:41:25;;;;;;;12.23;2.90;;;;;;;;;;5079555;27;20048;-65
2022/05/31 00:43:52;;;;;;;6.75;2.53;;;;;;;;;;5068412;28;20482;-65
2022/05/31 00:46:21;;;;;;;7.75;2.80;;;;;;;;;;5068288;28;20040;-65
2022/05/31 00:48:57;;;;;;;11.57;3.30;;;;;;;;;;5067954;28;20047;-67
2022/05/31 00:51:31;;;;;;;17.42;4.07;;;;;;;;;;5073965;28;20095;-65
2022/05/31 00:54:01;;;;;;;10.85;3.72;;;;;;;;;;5067064;28;20037;-65
2022/05/31 00:56:29;;;;;;;9.88;3.65;;;;;;;;;;5068248;28;20102;-66
2022/05/31 00:59:01;;;;;;;13.00;3.45;;;;;;;;;;5066947;28;20037;-66
2022/05/31 01:01:30;;;;;;;12.73;3.78;;;;;;;;;;5068046;28;20039;-66
2022/05/31 01:03:58;;;;;;;8.52;3.67;;;;;;;;;;5067789;28;20442;-66
2022/05/31 01:06:25;;;;;;;12.98;3.55;;;;;;;;;;5066482;28;20055;-65
2022/05/31 01:08:55;;;;;;;12.85;4.40;;;;;;;;;;5067834;28;20523;-65
2022/05/31 01:11:42;;;;;;;9.30;3.85;;;;;;;;;;5067810;28;20040;-65
2022/05/31 01:14:38;;;;;;;17.02;5.07;;;;;;;;;;5067498;28;20520;-65
2022/05/31 01:17:24;;;;;;;12.05;4.43;;;;;;;;;;5067994;28;20079;-65
2022/05/31 01:20:19;;;;;;;8.55;4.00;;;;;;;;;;5067172;28;20131;-65
2022/05/31 01:23:17;;;;;;;11.18;4.68;;;;;;;;;;5080190;28;20047;-65
2022/05/31 01:26:09;;;;;;;16.00;5.07;;;;;;;;;;5087616;28;20044;-65
2022/05/31 01:28:43;;;;;;;15.57;6.00;;;;;;;;;;5087212;28;20037;-65
2022/05/31 01:31:30;;;;;;;14.00;5.47;;;;;;;;;;5083817;28;20054;-65
2022/05/31 01:34:21;;;;;;;13.60;4.90;;;;;;;;;;5073270;28;20529;-65
2022/05/31 01:36:50;;;;;;;10.30;4.32;;;;;;;;;;5054406;28;20081;-65
2022/05/31 01:39:34;;;;;;;10.27;4.78;;;;;;;;;;5069676;28;20509;-65
2022/05/31 01:42:07;;;;;;;16.52;5.18;;;;;;;;;;5069768;28;20032;-65
2022/05/31 01:44:35;;;;;;;14.60;5.55;;;;;;;;;;5054468;28;20061;-65
2022/05/31 01:47:03;;;;;;;19.92;5.40;;;;;;;;;;5054209;28;20078;-65
2022/05/31 01:49:35;;;;;;;16.92;5.50;;;;;;;;;;5069471;28;20025;-65
2022/05/31 01:52:02;;;;;;;21.70;6.33;;;;;;;;;;5053957;28;20509;-65
2022/05/31 01:54:29;;;;;;;15.32;6.20;;;;;;;;;;5069416;28;20074;-65
2022/05/31 01:57:00;;;;;;;18.00;6.75;;;;;;;;;;5069627;28;20037;-66
2022/05/31 01:59:31;;;;;;;16.45;7.43;;;;;;;;;;5052663;28;20788;-65
2022/05/31 02:02:01;;;;;;;15.88;7.00;;;;;;;;;;5069282;28;20040;-67
2022/05/31 02:04:28;;;;;;;14.55;6.80;;;;;;;;;;5052724;28;20048;-67
2022/05/31 02:07:12;;;;;;;20.05;7.55;;;;;;;;;;5053989;28;20046;-66
2022/05/31 02:09:42;;;;;;;21.02;7.68;;;;;;;;;;5069224;28;20040;-67
2022/05/31 02:12:13;;;;;;;22.10;7.43;;;;;;;;;;5052234;28;20395;-65
2022/05/31 02:14:50;;;;;;;17.15;6.47;;;;;;;;;;5069331;28;20502;-65
2022/05/31 02:17:16;;;;;;;22.35;7.32;;;;;;;;;;5052311;28;20112;-64
2022/05/31 02:20:00;;;;;;;15.73;7.28;;;;;;;;;;5057552;28;20083;-65
2022/05/31 02:22:32;;;;;;;17.10;6.85;;;;;;;;;;5088865;28;20444;-66
2022/05/31 02:24:58;;;;;;;16.00;6.50;;;;;;;;;;5084320;28;20083;-66
2022/05/31 02:27:24;;;;;;;17.27;6.90;;;;;;;;;;5052110;28;20494;-65
2022/05/31 02:29:49;;;;;;;16.23;6.47;;;;;;;;;;5052207;28;20037;-65
2022/05/31 02:32:16;;;;;;;18.20;6.90;;;;;;;;;;5051833;28;20021;-65
2022/05/31 02:34:47;;;;;;;12.90;6.70;;;;;;;;;;5051972;28;20048;-66
2022/05/31 02:37:17;;;;;;;14.27;5.88;;;;;;;;;;5051903;28;20037;-65
2022/05/31 02:39:44;;;;;;;12.05;6.15;;;;;;;;;;5062257;28;20040;-65
2022/05/31 02:42:14;;;;;;;12.25;5.32;;;;;;;;;;5088490;28;20111;-67
2022/05/31 02:44:40;;;;;;;13.98;5.65;;;;;;;;;;5087758;28;20382;-66
2022/05/31 02:47:07;;;;;;;16.80;5.70;;;;;;;;;;5089048;28;20024;-66
2022/05/31 02:49:35;;;;;;;16.50;6.18;;;;;;;;;;5089045;28;20146;-65
2022/05/31 02:52:01;;;;;;;14.65;5.65;;;;;;;;;;5072987;28;20028;-65
2022/05/31 02:54:28;;;;;;;18.13;6.20;;;;;;;;;;5071517;28;20036;-67
2022/05/31 02:57:12;;;;;;;16.65;6.15;;;;;;;;;;5072763;28;20043;-65
2022/05/31 02:59:38;;;;;;;13.23;5.30;;;;;;;;;;5072569;28;20119;-66
2022/05/31 03:02:37;;;;;;;20.08;6.75;;;;;;;;;;5052788;28;20108;-65
2022/05/31 03:05:21;;;;;;;16.13;6.40;;;;;;;;;;5064987;28;20052;-65
2022/05/31 03:07:50;;;;;;;15.95;6.70;;;;;;;;;;5052695;28;20029;-64
2022/05/31 03:10:20;;;;;;;24.17;6.88;;;;;;;;;;5063101;28;20029;-65
2022/05/31 03:12:47;;;;;;;22.30;7.43;;;;;;;;;;5072305;28;20036;-65
2022/05/31 03:15:16;;;;;;;17.85;7.13;;;;;;;;;;5087980;28;20031;-65
2022/05/31 03:18:01;;;;;;;22.25;7.40;;;;;;;;;;5087518;28;20031;-65
2022/05/31 03:20:49;;;;;;;44.83;10.32;;;;;;;;;;5071798;28;20403;-65
2022/05/31 03:23:30;;;;;;;40.85;9.27;;;;;;;;;;5072280;28;20038;-64
2022/05/31 03:26:00;;;;;;;24.55;7.15;;;;;;;;;;5087971;28;20028;-65
2022/05/31 03:28:28;;;;;;;19.13;7.53;;;;;;;;;;5071753;28;20500;-66
2022/05/31 03:30:54;;;;;;;25.75;6.22;;;;;;;;;;5071564;28;20035;-66
2022/05/31 03:33:20;;;;;;;20.85;6.90;;;;;;;;;;5087616;28;20033;-65
2022/05/31 03:35:46;;;;;;;37.25;8.20;;;;;;;;;;5072106;28;20024;-65
2022/05/31 03:38:22;;;;;;;23.38;7.40;;;;;;;;;;5087087;28;20485;-65
2022/05/31 03:40:58;;;;;;;25.52;6.50;;;;;;;;;;5087366;28;20109;-65
2022/05/31 03:43:59;;;;;;;21.77;6.70;;;;;;;;;;5071049;28;20179;-65
2022/05/31 03:46:47;;;;;;;24.42;5.70;;;;;;;;;;5071688;28;20497;-66
2022/05/31 03:49:35;;;;;;;12.98;4.80;;;;;;;;;;5061291;28;20043;-66
2022/05/31 03:52:06;;;;;;;31.13;6.75;;;;;;;;;;5087141;28;20043;-66
2022/05/31 03:54:37;;;;;;;27.45;5.47;;;;;;;;;;5086645;28;20086;-65
2022/05/31 03:57:20;;;;;;;21.23;6.38;;;;;;;;;;5071241;28;20039;-66
2022/05/31 03:59:52;;;;;;;16.90;5.13;;;;;;;;;;5087032;28;20036;-67
2022/05/31 04:02:20;;;;;;;17.13;5.78;;;;;;;;;;5086887;28;20040;-66
2022/05/31 04:04:47;;;;;;;20.02;5.50;;;;;;;;;;5086987;28;20074;-65
2022/05/31 04:07:12;;;;;;;18.67;5.47;;;;;;;;;;5086508;28;20399;-65
2022/05/31 04:09:38;;;;;;;23.48;6.50;;;;;;;;;;5069456;28;20043;-68
2022/05/31 04:12:08;;;;;;;26.27;6.22;;;;;;;;;;5069889;28;20033;-65
2022/05/31 04:15:03;;;;;;;22.88;5.95;;;;;;;;;;5057341;28;20067;-65
2022/05/31 04:17:30;;;;;;;16.58;5.40;;;;;;;;;;5066987;28;20041;-66
2022/05/31 04:19:56;;;;;;;13.50;5.50;;;;;;;;;;5069536;28;20054;-66
2022/05/31 04:22:22;;;;;;;19.63;6.40;;;;;;;;;;5069406;28;20071;-67
2022/05/31 04:24:54;;;;;;;15.32;5.80;;;;;;;;;;5069640;28;20044;-69
2022/05/31 04:27:43;;;;;;;20.23;5.28;;;;;;;;;;5051033;28;20055;-68
2022/05/31 04:30:42;;;;;;;24.92;6.25;;;;;;;;;;5029286;28;20140;-67
2022/05/31 04:33:27;;;;;;;21.63;6.10;;;;;;;;;;5055107;28;20518;-73
2022/05/31 04:36:02;;;;;;;16.10;5.25;;;;;;;;;;5069483;28;20120;-71
2022/05/31 04:38:28;;;;;;;18.02;5.22;;;;;;;;;;5068938;28;20510;-71
2022/05/31 04:40:59;;;;;;;19.65;6.15;;;;;;;;;;5062299;28;20040;-72
2022/05/31 04:43:43;;;;;;;19.33;6.80;;;;;;;;;;5059372;28;20102;-72
2022/05/31 04:46:20;;;;;;;14.68;5.63;;;;;;;;;;5055073;28;20032;-67
2022/05/31 04:48:52;;;;;;;19.40;5.68;;;;;;;;;;5085944;28;20124;-68
2022/05/31 04:51:19;;;;;;;15.90;4.55;;;;;;;;;;5083333;28;20491;-67
2022/05/31 04:53:54;;;;;;;16.25;4.82;;;;;;;;;;5068438;28;20127;-68
2022/05/31 04:56:31;;;;;;;14.35;4.70;;;;;;;;;;5070589;28;20043;-68
2022/05/31 04:59:03;;;;;;;16.38;5.10;;;;;;;;;;5070311;28;20512;-65
2022/05/31 05:01:29;;;;;;;17.65;4.78;;;;;;;;;;5070247;28;20159;-67
2022/05/31 05:03:59;;;;;;;9.25;3.78;;;;;;;;;;5054139;28;20025;-67
2022/05/31 05:06:26;;;;;;;7.85;3.75;;;;;;;;;;5070414;28;20035;-67
2022/05/31 05:08:55;;;;;;;8.00;3.78;;;;;;;;;;5073644;28;20024;-68
2022/05/31 05:11:23;;;;;;;10.77;3.90;;;;;;;;;;5074595;28;20029;-69
2022/05/31 05:13:56;;;;;;;11.88;3.95;;;;;;;;;;5074683;28;20025;-66
2022/05/31 05:16:37;;;;;;;7.07;3.43;;;;;;;;;;5059264;28;20376;-66
2022/05/31 05:19:03;;;;;;;10.88;3.10;;;;;;;;;;5053987;28;20039;-68
2022/05/31 05:21:29;;;;;;;12.32;3.75;;;;;;;;;;5053715;28;20063;-66
2022/05/31 05:23:56;;;;;;;12.23;3.55;;;;;;;;;;5053946;28;20041;-73
2022/05/31 05:26:36;;;;;;;14.13;3.67;;;;;;;;;;5053577;28;20020;-68
2022/05/31 05:32:12;;;;;;;11.18;3.53;;;;;;;;;;5054035;28;20136;-71
2022/05/31 05:34:37;;;;;;;11.75;3.60;;;;;;;;;;5054925;28;20033;-74
2022/05/31 05:37:13;;;;;;;10.00;3.80;;;;;;;;;;5053587;28;20040;-69
2022/05/31 05:39:39;;;;;;;13.63;3.13;;;;;;;;;;5053590;28;20029;-70
2022/05/31 05:42:23;;;;;;;10.80;3.40;;;;;;;;;;5053921;28;20094;-71
2022/05/31 05:45:10;;;;;;;10.65;3.38;;;;;;;;;;5054759;28;20314;-70
2022/05/31 05:47:38;;;;;;;9.27;3.50;;;;;;;;;;5053177;28;20086;-69
2022/05/31 05:50:05;;;;;;;7.93;3.35;;;;;;;;;;5051560;28;20043;-68
2022/05/31 05:52:54;;;;;;;12.02;2.95;;;;;;;;;;5054379;28;20038;-68
2022/05/31 05:55:39;;;;;;;9.20;3.17;;;;;;;;;;5054488;28;20051;-68
2022/05/31 05:58:11;;;;;;;11.98;4.13;;;;;;;;;;5070535;28;20036;-69
2022/05/31 06:00:56;;;;;;;11.70;3.47;;;;;;;;;;5070080;28;20565;-68
2022/05/31 06:03:35;;;;;;;13.50;3.72;;;;;;;;;;5053277;28;20391;-69
2022/05/31 06:06:04;;;;;;;6.60;3.10;;;;;;;;;;5054370;28;20088;-68
2022/05/31 06:08:30;;;;;;;14.77;3.50;;;;;;;;;;5054347;28;20429;-68
2022/05/31 06:11:14;;;;;;;13.27;4.22;;;;;;;;;;5054243;28;20032;-69
2022/05/31 06:13:50;;;;;;;15.50;4.10;;;;;;;;;;5071340;28;20039;-71
2022/05/31 06:16:19;;;;;;;13.02;3.55;;;;;;;;;;5089121;28;20411;-70
2022/05/31 06:18:50;;;;;;;10.57;3.58;;;;;;;;;;5089479;28;20052;-71
2022/05/31 06:21:20;;;;;;;12.75;3.22;;;;;;;;;;5089429;28;20546;-67
2022/05/31 06:23:49;;;;;;;11.00;3.92;;;;;;;;;;5072334;28;20512;-73
2022/05/31 06:26:17;;;;;;;9.02;3.33;;;;;;;;;;5088882;28;20033;-72
2022/05/31 06:28:56;;;;;;;12.20;3.88;;;;;;;;;;5088743;28;20037;-69
2022/05/31 06:31:22;;;;;;;12.65;3.90;;;;;;;;;;5084650;28;20079;-69
2022/05/31 06:33:48;;;;;;;12.60;3.95;;;;;;;;;;5053486;28;20049;-70
2022/05/31 06:36:15;;;;;;;8.30;3.22;;;;;;;;;;5052068;28;20033;-73
2022/05/31 06:38:42;;;;;;;8.52;2.75;;;;;;;;;;5053143;28;20032;-70
2022/05/31 06:41:08;;;;;;;9.60;3.70;;;;;;;;;;5051641;28;20073;-68
2022/05/31 06:44:06;;;;;;;10.45;3.70;;;;;;;;;;5041193;28;20051;-71
2022/05/31 06:46:50;;;;;;;11.70;3.70;;;;;;;;;;5053441;28;20060;-71
2022/05/31 06:49:36;;;;;;;9.30;3.75;;;;;;;;;;5053019;28;20040;-68
2022/05/31 06:57:40;;;;;;;16.63;3.45;;;;;;;;;;5053083;28;20112;-71
2022/05/31 07:00:28;;;;;;;9.60;3.40;;;;;;;;;;5051710;28;20025;-71
2022/05/31 07:02:55;;;;;;;10.18;3.08;;;;;;;;;;5068193;28;20092;-71
2022/05/31 07:05:23;;;;;;;13.85;3.50;;;;;;;;;;5051309;28;20344;-71
2022/05/31 07:07:52;;;;;;;11.88;3.50;;;;;;;;;;5051632;28;20317;-72
2022/05/31 07:10:53;;;;;;;10.32;3.67;;;;;;;;;;5055728;28;20428;-68
2022/05/31 07:13:42;;;;;;;6.28;3.17;;;;;;;;;;5062275;28;20105;-70
2022/05/31 07:16:26;;;;;;;8.77;3.00;;;;;;;;;;5072951;28;20154;-67
2022/05/31 07:19:11;;;;;;;8.15;2.88;;;;;;;;;;5072932;28;20039;-69
2022/05/31 07:21:42;;;;;;;12.68;3.20;;;;;;;;;;5087783;28;20505;-68
2022/05/31 07:24:08;;;;;;;14.02;3.35;;;;;;;;;;5087856;28;20406;-69
2022/05/31 07:26:38;;;;;;;9.38;3.08;;;;;;;;;;5087728;28;20089;-68
2022/05/31 07:29:06;;;;;;;13.27;2.90;;;;;;;;;;5087880;28;20119;-67
2022/05/31 07:31:35;;;;;;;9.68;2.60;;;;;;;;;;5087342;28;20028;-67
2022/05/31 07:34:09;;;;;;;13.63;3.20;;;;;;;;;;5071304;28;20453;-69
2022/05/31 07:36:36;;;;;;;12.88;3.13;;;;;;;;;;5072105;28;20043;-69
2022/05/31 07:39:16;;;;;;;8.68;2.70;;;;;;;;;;5071495;28;20032;-67
2022/05/31 07:41:45;;;;;;;12.55;3.30;;;;;;;;;;5070391;28;20044;-68
2022/05/31 07:44:11;;;;;;;9.80;2.60;;;;;;;;;;5070820;28;20107;-68
2022/05/31 07:46:38;;;;;;;7.43;2.60;;;;;;;;;;5070855;28;20160;-68
2022/05/31 07:49:04;;;;;;;12.27;3.70;;;;;;;;;;5070668;28;20027;-68
2022/05/31 07:51:52;;;;;;;11.02;4.60;;;;;;;;;;5071772;28;20079;-71
2022/05/31 07:54:44;;;;;;;12.75;2.92;;;;;;;;;;5055239;28;20051;-69
2022/05/31 08:00:23;;;;;;;11.30;2.92;;;;;;;;;;5071581;28;20487;-68
2022/05/31 08:02:49;;;;;;;9.15;2.60;;;;;;;;;;5072006;28;20047;-68
2022/05/31 08:05:15;;;;;;;7.43;3.22;;;;;;;;;;5072043;28;20070;-72
2022/05/31 08:07:41;;;;;;;4.82;2.55;;;;;;;;;;5071938;28;20037;-70
2022/05/31 08:10:09;;;;;;;7.63;2.63;;;;;;;;;;5072201;28;20391;-69
2022/05/31 08:12:35;;;;;;;5.00;2.28;;;;;;;;;;5071858;28;20033;-69
2022/05/31 08:15:01;;;;;;;5.00;2.55;;;;;;;;;;5071861;28;20364;-68
2022/05/31 08:17:27;;;;;;;6.75;2.30;;;;;;;;;;5071762;28;20036;-70
2022/05/31 08:19:54;;;;;;;12.55;2.58;;;;;;;;;;5071506;28;20137;-71
2022/05/31 08:22:21;;;;;;;11.18;3.00;;;;;;;;;;5071839;28;20098;-70
2022/05/31 08:24:47;;;;;;;7.80;2.53;;;;;;;;;;5071719;28;20024;-70
2022/05/31 08:27:13;;;;;;;8.35;2.30;;;;;;;;;;5071605;28;20040;-70
2022/05/31 08:29:40;;;;;;;8.27;2.45;;;;;;;;;;5071654;28;20067;-68
2022/05/31 08:32:07;;;;;;;8.63;2.42;;;;;;;;;;5071587;28;20085;-70
2022/05/31 08:34:33;;;;;;;10.85;2.60;;;;;;;;;;5071286;28;20338;-70
2022/05/31 08:36:59;;;;;;;7.10;2.20;;;;;;;;;;5070949;28;20095;-70
2022/05/31 08:39:25;;;;;;;5.70;2.30;;;;;;;;;;5071715;28;20029;-70
2022/05/31 08:41:59;;;;;;;8.95;2.58;;;;;;;;;;5072673;28;20429;-69
2022/05/31 08:44:28;;;;;;;7.95;2.42;;;;;;;;;;5075070;28;20028;-68
2022/05/31 08:46:59;;;;;;;8.20;2.47;;;;;;;;;;5075274;28;20111;-70
2022/05/31 08:53:08;;;;;;;8.75;2.47;;;;;;;;;;5075013;28;20090;-69
2022/05/31 08:58:32;;;;;;;6.95;2.50;;;;;;;;;;5073904;28;20040;-69
2022/05/31 09:00:59;;;;;;;9.43;2.97;;;;;;;;;;5075485;28;20097;-72
2022/05/31 09:03:41;;;;;;;8.70;2.75;;;;;;;;;;5075039;28;20474;-69
2022/05/31 09:06:11;;;;;;;5.97;2.10;;;;;;;;;;5075186;28;20032;-70
2022/05/31 09:08:55;;;;;;;5.40;2.25;;;;;;;;;;5075031;28;20112;-69
2022/05/31 09:11:48;;;;;;;7.72;2.30;;;;;;;;;;5075109;28;20039;-69
2022/05/31 09:14:22;;;;;;;6.00;2.70;;;;;;;;;;5075018;28;20842;-69
2022/05/31 09:16:54;;;;;;;6.97;2.60;;;;;;;;;;5074790;28;20055;-69
2022/05/31 09:19:44;;;;;;;8.90;2.25;;;;;;;;;;5073241;28;20052;-68
2022/05/31 09:22:11;;;;;;;9.70;2.10;;;;;;;;;;5074901;28;20109;-68
2022/05/31 09:24:45;;;;;;;6.75;2.38;;;;;;;;;;5074906;28;20051;-68
2022/05/31 09:27:23;;;;;;;12.32;2.70;;;;;;;;;;5074946;28;20542;-69
2022/05/31 09:30:01;;;;;;;6.05;2.08;;;;;;;;;;5075165;28;20391;-70
2022/05/31 09:33:10;;;;;;;8.00;2.45;;;;;;;;;;5074886;28;20028;-69
2022/05/31 09:35:42;;;;;;;10.48;3.42;;;;;;;;;;5073499;28;20032;-69
2022/05/31 09:38:26;;;;;;;9.10;2.30;;;;;;;;;;5073299;28;20037;-72
2022/05/31 09:41:08;;;;;;;6.35;2.22;;;;;;;;;;5074085;28;20384;-73
2022/05/31 09:43:48;;;;;;;7.82;2.40;;;;;;;;;;5075133;28;20028;-71
2022/05/31 09:46:35;;;;;;;12.48;2.67;;;;;;;;;;5074603;28;20056;-68
2022/05/31 09:49:13;;;;;;;12.50;2.50;;;;;;;;;;5073608;28;20467;-71
2022/05/31 09:51:42;;;;;;;8.52;2.40;;;;;;;;;;5061259;28;20124;-71
2022/05/31 09:57:24;;;;;;;7.78;2.33;;;;;;;;;;5053600;28;20118;-71
2022/05/31 10:00:13;;;;;;;7.72;2.40;;;;;;;;;;5054374;28;20064;-71
2022/05/31 10:03:16;;;;;;;7.70;2.20;;;;;;;;;;5054176;28;20127;-71
2022/05/31 10:05:48;;;;;;;13.13;2.15;;;;;;;;;;5053916;28;20069;-69
2022/05/31 10:08:17;;;;;;;9.93;2.47;;;;;;;;;;5054066;28;20067;-71
2022/05/31 10:10:48;;;;;;;8.95;2.70;;;;;;;;;;5054632;28;20091;-68
2022/05/31 10:13:33;;;;;;;5.80;2.20;;;;;;;;;;5057335;28;20036;-69
2022/05/31 10:16:09;;;;;;;16.65;3.25;;;;;;;;;;5074004;28;20032;-68
2022/05/31 10:18:46;;;;;;;9.10;2.30;;;;;;;;;;5073823;28;20374;-69
2022/05/31 10:21:12;;;;;;;11.25;2.38;;;;;;;;;;5073805;28;20045;-69
2022/05/31 10:23:43;;;;;;;11.60;2.08;;;;;;;;;;5073922;28;20051;-69
2022/05/31 10:26:31;;;;;;;7.03;2.28;;;;;;;;;;5073731;28;20070;-70
2022/05/31 10:29:33;;;;;;;10.15;2.75;;;;;;;;;;5064318;28;20094;-69
2022/05/31 10:32:41;;;;;;;7.43;2.15;;;;;;;;;;5060677;28;20036;-69
2022/05/31 10:35:28;;;;;;;9.85;2.22;;;;;;;;;;5053617;28;20127;-69
2022/05/31 10:38:04;;;;;;;7.07;2.45;;;;;;;;;;5052211;28;20059;-68
2022/05/31 10:40:40;;;;;;;7.45;2.22;;;;;;;;;;5053550;28;20120;-68
2022/05/31 10:43:17;;;;;;;9.77;2.22;;;;;;;;;;5053308;28;20033;-69
2022/05/31 10:45:43;;;;;;;8.52;2.30;;;;;;;;;;5053809;28;20032;-68
2022/05/31 10:48:09;;;;;;;8.52;2.55;;;;;;;;;;5053701;28;20021;-69
2022/05/31 10:51:05;;;;;;;7.00;2.13;;;;;;;;;;5053571;28;20029;-69
2022/05/31 10:53:59;;;;;;;5.78;2.20;;;;;;;;;;5053582;28;20032;-66
2022/05/31 10:56:37;;;;;;;12.50;2.88;;;;;;;;;;5053264;28;20040;-68
2022/05/31 10:59:15;;;;;;;4.22;1.63;;;;;;;;;;5053338;28;20040;-69
2022/05/31 11:01:49;;;;;;;7.90;2.13;;;;;;;;;;5052993;28;20037;-69
2022/05/31 11:04:52;;;;;;;10.82;2.83;;;;;;;;;;5053003;28;20029;-68
2022/05/31 11:07:18;;;;;;;6.57;2.55;;;;;;;;;;5053089;28;20037;-66
2022/05/31 11:13:07;;;;;;;8.48;2.38;;;;;;;;;;5053082;28;20053;-68
2022/05/31 11:15:38;;;;;;;8.57;2.90;;;;;;;;;;5053118;28;20059;-67
2022/05/31 11:18:32;;;;;;;10.60;2.38;;;;;;;;;;5064206;28;20029;-68
2022/05/31 11:21:23;;;;;;;6.88;2.25;;;;;;;;;;5056637;28;20044;-69
2022/05/31 11:24:11;;;;;;;4.90;1.80;;;;;;;;;;5064531;28;20029;-71
2022/05/31 11:26:58;;;;;;;7.35;1.98;;;;;;;;;;5070555;28;20035;-70
2022/05/31 11:29:45;;;;;;;6.80;1.67;;;;;;;;;;5068784;28;20029;-67
2022/05/31 11:32:46;;;;;;;18.13;2.90;;;;;;;;;;5050671;28;20127;-69
2022/05/31 11:35:19;;;;;;;7.80;2.15;;;;;;;;;;5053500;28;20032;-69
2022/05/31 11:37:53;;;;;;;9.95;2.15;;;;;;;;;;5069957;28;20083;-70
2022/05/31 11:40:46;;;;;;;5.70;2.08;;;;;;;;;;5071398;28;20082;-71
2022/05/31 11:43:43;;;;;;;12.15;2.03;;;;;;;;;;5070487;28;20443;-74
2022/05/31 11:46:23;;;;;;;5.80;1.70;;;;;;;;;;5071363;28;20056;-70
2022/05/31 11:48:57;;;;;;;7.70;2.53;;;;;;;;;;5071429;28;20045;-71
2022/05/31 11:51:48;;;;;;;10.38;2.40;;;;;;;;;;5071226;28;20040;-69
2022/05/31 11:54:26;;;;;;;7.70;2.35;;;;;;;;;;5071685;28;20037;-70
2022/05/31 11:57:10;;;;;;;9.50;2.10;;;;;;;;;;5071383;28;20025;-70
2022/05/31 11:59:58;;;;;;;6.97;2.00;;;;;;;;;;5069896;28;20638;-66
2022/05/31 12:02:35;;;;;;;6.78;2.08;;;;;;;;;;5060138;28;20029;-68
2022/05/31 12:05:20;;;;;;;4.55;2.20;;;;;;;;;;5051930;28;20094;-66
2022/05/31 12:07:52;;;;;;;7.88;1.95;;;;;;;;;;5051318;28;20040;-68
2022/05/31 12:10:34;;;;;;;13.32;2.78;;;;;;;;;;5051923;28;20060;-69
2022/05/31 12:13:07;;;;;;;8.13;2.10;;;;;;;;;;5066173;28;20078;-69
2022/05/31 12:15:36;;;;;;;11.30;3.22;;;;;;;;;;5069933;28;20032;-70
2022/05/31 12:18:30;;;;;;;6.93;2.13;;;;;;;;;;5071106;28;20031;-69
2022/05/31 12:21:02;;;;;;;6.35;2.67;;;;;;;;;;5070217;28;20129;-68
2022/05/31 12:23:51;;;;;;;3.63;1.70;;;;;;;;;;5061646;28;20032;-69
2022/05/31 12:26:40;;;;;;;8.05;2.10;;;;;;;;;;5068570;28;20280;-68
2022/05/31 12:29:06;;;;;;;9.38;2.47;;;;;;;;;;5061188;28;20032;-68
2022/05/31 12:31:37;;;;;;;11.82;2.22;;;;;;;;;;5064506;28;20115;-68
2022/05/31 12:34:33;;;;;;;6.30;2.07;;;;;;;;;;5062593;28;20119;-68
2022/05/31 12:37:09;;;;;;;8.02;1.98;;;;;;;;;;5058982;28;20519;-70
2022/05/31 12:39:37;;;;;;;4.88;2.00;;;;;;;;;;5057243;28;20036;-68
2022/05/31 12:42:14;;;;;;;8.50;2.30;;;;;;;;;;5071663;28;20032;-69
2022/05/31 12:44:48;;;;;;;8.45;1.70;;;;;;;;;;5071951;28;20029;-68
2022/05/31 12:47:33;;;;;;;13.00;2.20;;;;;;;;;;5065738;28;20398;-68
2022/05/31 12:50:04;;;;;;;7.57;2.03;;;;;;;;;;5084457;28;20410;-69
2022/05/31 12:55:27;;;;;;;5.43;1.77;;;;;;;;;;5060714;28;20029;-67
2022/05/31 13:00:51;;;;;;;8.77;2.22;;;;;;;;;;5064340;28;20033;-68
2022/05/31 13:03:32;;;;;;;4.57;1.83;;;;;;;;;;5064484;28;20146;-68
2022/05/31 13:06:02;;;;;;;5.05;2.10;;;;;;;;;;5064016;28;20024;-68
2022/05/31 13:08:55;;;;;;;11.23;2.28;;;;;;;;;;5069203;28;20017;-69
2022/05/31 13:20:13;;;;;;;12.65;2.20;;;;;;;;;;5069736;28;20052;-68
2022/05/31 13:22:48;;;;;;;9.40;2.08;;;;;;;;;;5071685;28;20483;-71
2022/05/31 13:25:26;;;;;;;10.20;2.40;;;;;;;;;;5070588;28;20518;-67
2022/05/31 13:27:54;;;;;;;7.97;2.22;;;;;;;;;;5070790;28;20040;-67
2022/05/31 13:30:24;;;;;;;5.95;2.03;;;;;;;;;;5075257;28;20033;-68
2022/05/31 13:32:50;;;;;;;6.53;1.90;;;;;;;;;;5069038;28;20028;-69
2022/05/31 13:35:26;;;;;;;4.38;1.73;;;;;;;;;;5069498;28;20108;-72
2022/05/31 13:38:08;;;;;;;7.22;2.00;;;;;;;;;;5068755;28;20079;-69
2022/05/31 13:40:43;;;;;;;9.40;1.95;;;;;;;;;;5058948;28;20033;-67
2022/05/31 13:43:36;;;;;;;6.25;1.98;;;;;;;;;;5060844;28;20028;-70
2022/05/31 13:46:14;;;;;;;4.95;1.83;;;;;;;;;;5065130;28;20054;-69
2022/05/31 13:48:40;;;;;;;6.85;2.00;;;;;;;;;;5072935;28;20029;-69
2022/05/31 13:51:20;;;;;;;4.57;1.70;;;;;;;;;;5062011;28;20110;-72
2022/05/31 13:53:46;;;;;;;7.13;2.22;;;;;;;;;;5078667;28;20082;-70
2022/05/31 13:56:21;;;;;;;8.30;2.00;;;;;;;;;;5076006;28;20028;-71
2022/05/31 13:58:50;;;;;;;9.50;2.10;;;;;;;;;;5068246;28;20040;-74
2022/05/31 14:01:36;;;;;;;5.53;1.80;;;;;;;;;;5060762;28;20024;-68
2022/05/31 14:04:09;;;;;;;8.48;2.13;;;;;;;;;;5066565;28;20368;-73
2022/05/31 14:06:37;;;;;;;7.60;1.98;;;;;;;;;;5058575;28;20498;-68
2022/05/31 14:09:06;;;;;;;7.78;2.38;;;;;;;;;;5070497;28;20016;-71
2022/05/31 14:11:41;;;;;;;4.53;1.88;;;;;;;;;;5065283;28;20033;-68
2022/05/31 14:14:17;;;;;;;6.18;1.77;;;;;;;;;;5061968;28;20029;-69
2022/05/31 14:16:43;;;;;;;9.07;1.73;;;;;;;;;;5074419;28;20090;-68
2022/05/31 14:19:18;;;;;;;4.75;1.92;;;;;;;;;;5074460;28;20024;-70
2022/05/31 14:21:53;;;;;;;11.45;2.10;;;;;;;;;;5073748;28;20052;-71
2022/05/31 14:24:24;;;;;;;5.93;1.90;;;;;;;;;;5072541;28;20025;-70
2022/05/31 14:26:54;;;;;;;6.15;2.00;;;;;;;;;;5064199;28;20447;-69
2022/05/31 14:29:23;;;;;;;9.85;2.38;;;;;;;;;;5068564;28;20033;-67
2022/05/31 14:32:12;;;;;;;6.30;2.38;;;;;;;;;;5070747;28;20471;-67
2022/05/31 14:34:52;;;;;;;4.85;1.88;;;;;;;;;;5065409;28;20044;-69
2022/05/31 14:37:38;;;;;;;9.27;2.20;;;;;;;;;;5073804;28;20043;-70
2022/05/31 14:40:22;;;;;;;5.25;1.80;;;;;;;;;;5068393;28;20056;-71
2022/05/31 14:43:25;;;;;;;7.82;2.15;;;;;;;;;;5067704;28;20111;-68
2022/05/31 14:45:52;;;;;;;6.10;2.38;;;;;;;;;;5062804;28;20029;-68
2022/05/31 14:48:36;;;;;;;10.35;2.25;;;;;;;;;;5065303;28;20020;-69
2022/05/31 14:51:31;;;;;;;6.88;2.10;;;;;;;;;;5072693;28;20033;-70
2022/05/31 14:53:57;;;;;;;7.15;2.10;;;;;;;;;;5067582;28;20441;-73
2022/05/31 14:56:38;;;;;;;5.78;1.92;;;;;;;;;;5061498;28;20036;-72
2022/05/31 14:59:27;;;;;;;6.10;1.98;;;;;;;;;;5052736;28;20033;-72
2022/05/31 15:01:55;;;;;;;5.65;2.15;;;;;;;;;;5058719;28;20044;-74
2022/05/31 15:04:33;;;;;;;5.25;1.92;;;;;;;;;;5090863;28;20043;-70
2022/05/31 15:07:01;;;;;;;11.70;2.10;;;;;;;;;;5070193;28;20086;-72
2022/05/31 15:09:30;;;;;;;5.68;1.70;;;;;;;;;;5080519;28;20039;-69
2022/05/31 15:20:25;;;;;;;8.20;1.90;;;;;;;;;;5090704;28;20494;-73
2022/05/31 15:22:51;;;;;;;6.50;1.80;;;;;;;;;;5091135;28;20036;-70
2022/05/31 15:25:21;;;;;;;5.25;1.98;;;;;;;;;;5091943;28;20028;-70
2022/05/31 15:27:48;;;;;;;4.95;2.03;;;;;;;;;;5091784;28;20118;-70
2022/05/31 15:30:15;;;;;;;5.22;1.92;;;;;;;;;;5090994;28;20031;-74
2022/05/31 15:32:45;;;;;;;7.45;1.75;;;;;;;;;;5091160;28;20054;-72
2022/05/31 15:35:21;;;;;;;6.18;1.98;;;;;;;;;;5091648;28;20539;-72
2022/05/31 15:37:50;;;;;;;7.47;2.00;;;;;;;;;;5090900;28;20490;-69
2022/05/31 15:40:18;;;;;;;6.90;1.90;;;;;;;;;;5090230;28;20028;-71
2022/05/31 15:42:44;;;;;;;5.35;1.63;;;;;;;;;;5091270;28;20085;-68
2022/05/31 15:45:13;;;;;;;11.13;2.58;;;;;;;;;;5089551;28;20047;-68
2022/05/31 15:47:39;;;;;;;6.63;1.92;;;;;;;;;;5091475;28;20533;-69
2022/05/31 15:50:07;;;;;;;5.28;2.10;;;;;;;;;;5091534;28;20016;-71
2022/05/31 15:52:38;;;;;;;5.93;1.67;;;;;;;;;;5092112;28;20028;-68
2022/05/31 15:55:07;;;;;;;5.03;1.73;;;;;;;;;;5091813;28;20042;-71
2022/05/31 15:57:36;;;;;;;5.55;1.85;;;;;;;;;;5071736;28;20098;-69
2022/05/31 16:00:08;;;;;;;10.88;2.33;;;;;;;;;;5073043;28;20037;-68
2022/05/31 16:02:39;;;;;;;6.28;2.13;;;;;;;;;;5090274;28;20044;-68
2022/05/31 16:05:05;;;;;;;10.07;2.10;;;;;;;;;;5092049;28;20024;-68
2022/05/31 16:07:39;;;;;;;9.75;1.90;;;;;;;;;;5092358;28;20020;-70
2022/05/31 16:10:09;;;;;;;7.57;1.70;;;;;;;;;;5091817;28;20028;-69
2022/05/31 16:12:35;;;;;;;5.45;1.90;;;;;;;;;;5091511;28;20040;-69
2022/05/31 16:15:03;;;;;;;5.60;1.63;;;;;;;;;;5092149;28;20043;-69